createdAt,value
2023-06-22T00:01:46.077Z,9.47
2023-06-22T00:04:17.174Z,7.13
2023-06-22T00:06:50.878Z,7.13
2023-06-22T00:09:21.825Z,7.90
2023-06-22T00:11:52.746Z,7.60
2023-06-22T00:14:23.699Z,7.97
2023-06-22T00:16:55.935Z,8.13
2023-06-22T00:19:27.118Z,8.50
2023-06-22T00:22:01.624Z,8.60
2023-06-22T00:24:32.516Z,7.40
2023-06-22T00:27:03.703Z,8.17
2023-06-22T00:29:34.862Z,7.60
2023-06-22T00:32:06.132Z,7.07
2023-06-22T00:34:37.035Z,7.40
2023-06-22T00:37:12.660Z,7.80
2023-06-22T00:39:43.718Z,8.83
2023-06-22T00:42:14.584Z,9.07
2023-06-22T00:44:46.092Z,8.33
2023-06-22T00:47:18.320Z,7.17
2023-06-22T00:49:52.309Z,9.03
2023-06-22T00:52:30.214Z,9.73
2023-06-22T00:55:02.924Z,8.50
2023-06-22T00:57:38.867Z,8.27
2023-06-22T01:00:20.995Z,8.67
2023-06-22T01:02:56.573Z,7.97
2023-06-22T01:05:31.610Z,9.60
2023-06-22T01:08:24.341Z,8.30
2023-06-22T01:11:02.071Z,7.80
2023-06-22T01:13:39.237Z,8.30
2023-06-22T01:16:14.625Z,8.90
2023-06-22T01:18:47.416Z,9.37
2023-06-22T01:21:21.695Z,12.03
2023-06-22T01:24:08.033Z,9.30
2023-06-22T01:26:44.216Z,10.20
2023-06-22T01:29:19.702Z,9.10
2023-06-22T01:31:53.434Z,10.70
2023-06-22T01:34:25.931Z,9.43
2023-06-22T01:36:57.426Z,9.00
2023-06-22T01:39:29.288Z,11.40
2023-06-22T01:42:00.953Z,12.00
2023-06-22T01:44:35.421Z,11.47
2023-06-22T01:47:06.873Z,12.03
2023-06-22T01:49:38.156Z,10.60
2023-06-22T01:52:09.910Z,11.43
2023-06-22T01:54:41.940Z,9.27
2023-06-22T01:57:13.139Z,10.23
2023-06-22T01:59:54.913Z,11.53
2023-06-22T02:02:31.182Z,12.00
2023-06-22T02:05:06.672Z,11.17
2023-06-22T02:07:45.358Z,11.87
2023-06-22T02:10:19.685Z,10.87
2023-06-22T02:12:52.333Z,11.30
2023-06-22T02:15:26.185Z,10.43
2023-06-22T02:17:57.237Z,11.03
2023-06-22T02:20:28.882Z,11.80
2023-06-22T02:23:00.519Z,11.07
2023-06-22T02:25:31.448Z,12.00
2023-06-22T02:28:02.575Z,12.27
2023-06-22T02:30:36.111Z,18.00
2023-06-22T02:33:07.094Z,11.23
2023-06-22T02:35:37.967Z,11.20
2023-06-22T02:38:11.957Z,11.73
2023-06-22T02:40:43.116Z,10.67
2023-06-22T02:43:14.691Z,12.27
2023-06-22T02:45:48.438Z,11.07
2023-06-22T02:48:19.359Z,11.40
2023-06-22T02:50:50.215Z,11.57
2023-06-22T02:53:22.026Z,11.10
2023-06-22T02:55:53.345Z,12.03
2023-06-22T02:58:25.476Z,11.60
2023-06-22T03:00:59.068Z,12.50
2023-06-22T03:03:30.192Z,12.80
2023-06-22T03:06:02.114Z,11.70
2023-06-22T03:08:33.290Z,11.80
2023-06-22T03:11:04.299Z,12.87
2023-06-22T03:13:35.194Z,12.73
2023-06-22T03:16:08.973Z,10.40
2023-06-22T03:18:39.905Z,11.93
2023-06-22T03:21:10.914Z,12.50
2023-06-22T03:23:42.316Z,13.00
2023-06-22T03:26:14.178Z,13.20
2023-06-22T03:28:45.071Z,12.60
2023-06-22T03:31:22.882Z,11.77
2023-06-22T03:33:55.061Z,14.10
2023-06-22T03:36:26.211Z,12.47
2023-06-22T03:38:57.280Z,13.57
2023-06-22T03:41:28.487Z,12.93
2023-06-22T03:43:59.510Z,12.40
2023-06-22T03:46:33.128Z,13.90
2023-06-22T03:49:05.563Z,13.23
2023-06-22T03:51:37.008Z,14.40
2023-06-22T03:54:07.977Z,13.90
2023-06-22T03:56:39.592Z,14.60
2023-06-22T03:59:11.100Z,13.83
2023-06-22T04:01:44.685Z,16.37
2023-06-22T04:04:15.815Z,15.23
2023-06-22T04:06:47.063Z,15.73
2023-06-22T04:09:18.239Z,15.13
2023-06-22T04:11:49.208Z,16.37
2023-06-22T04:14:20.168Z,18.43
2023-06-22T04:16:53.676Z,16.17
2023-06-22T04:19:24.727Z,15.87
2023-06-22T04:21:55.736Z,16.50
2023-06-22T04:24:26.708Z,14.63
2023-06-22T04:26:57.635Z,17.00
2023-06-22T04:29:30.180Z,16.23
2023-06-22T04:32:04.300Z,15.47
2023-06-22T04:34:35.511Z,14.57
2023-06-22T04:37:06.837Z,15.20
2023-06-22T04:39:37.757Z,15.00
2023-06-22T04:42:09.789Z,16.27
2023-06-22T04:44:41.229Z,15.60
2023-06-22T04:47:14.765Z,14.93
2023-06-22T04:49:45.672Z,15.20
2023-06-22T04:52:21.455Z,14.77
2023-06-22T04:54:56.852Z,15.00
2023-06-22T04:57:33.865Z,14.87
2023-06-22T05:00:13.602Z,15.17
2023-06-22T05:02:51.816Z,13.87
2023-06-22T05:05:38.076Z,15.00
2023-06-22T05:08:16.107Z,14.70
2023-06-22T05:11:04.360Z,14.33
2023-06-22T05:13:36.783Z,15.07
2023-06-22T05:16:08.422Z,14.77
2023-06-22T05:18:43.105Z,13.77
2023-06-22T05:21:14.099Z,15.23
2023-06-22T05:23:45.016Z,15.13
2023-06-22T05:26:15.943Z,13.73
2023-06-22T05:28:48.018Z,13.73
2023-06-22T05:31:20.962Z,14.50
2023-06-22T05:33:57.086Z,13.07
2023-06-22T05:36:28.480Z,14.10
2023-06-22T05:39:01.182Z,13.50
2023-06-22T05:41:32.119Z,14.23
2023-06-22T05:44:03.309Z,14.67
2023-06-22T05:46:34.281Z,14.73
2023-06-22T05:49:08.089Z,13.77
2023-06-22T05:51:39.011Z,13.57
2023-06-22T05:54:10.298Z,12.20
2023-06-22T05:56:41.491Z,13.13
2023-06-22T05:59:13.428Z,16.87
2023-06-22T06:01:44.399Z,13.60
2023-06-22T06:04:18.042Z,13.70
2023-06-22T06:06:52.362Z,12.90
2023-06-22T06:09:23.365Z,13.63
2023-06-22T06:11:54.406Z,13.40
2023-06-22T06:14:25.310Z,12.47
2023-06-22T06:16:56.253Z,11.53
2023-06-22T06:19:29.784Z,13.00
2023-06-22T06:22:01.510Z,13.30
2023-06-22T06:24:32.423Z,14.80
2023-06-22T06:27:05.969Z,13.50
2023-06-22T06:29:36.859Z,13.50
2023-06-22T06:32:08.507Z,14.33
2023-06-22T06:34:42.098Z,14.40
2023-06-22T06:37:13.049Z,12.90
2023-06-22T06:39:44.776Z,15.17
2023-06-22T06:42:15.984Z,13.60
2023-06-22T06:44:46.920Z,12.83
2023-06-22T06:47:18.174Z,14.10
2023-06-22T06:49:51.983Z,13.73
2023-06-22T06:52:23.065Z,14.30
2023-06-22T06:54:54.712Z,14.17
2023-06-22T06:57:29.969Z,14.37
2023-06-22T07:00:01.314Z,15.10
2023-06-22T07:02:32.905Z,15.90
2023-06-22T07:05:07.524Z,16.57
2023-06-22T07:07:39.157Z,15.77
2023-06-22T07:10:11.529Z,17.27
2023-06-22T07:12:42.962Z,15.10
2023-06-22T07:15:15.403Z,16.97
2023-06-22T07:17:46.384Z,16.20
2023-06-22T07:20:21.000Z,16.50
2023-06-22T07:22:52.185Z,17.27
2023-06-22T07:25:23.537Z,17.33
2023-06-22T07:28:03.747Z,17.60
2023-06-22T07:30:36.244Z,15.63
2023-06-22T07:33:10.092Z,18.20
2023-06-22T07:35:43.894Z,17.83
2023-06-22T07:38:16.030Z,19.93
2023-06-22T07:40:47.771Z,17.97
2023-06-22T07:43:18.691Z,18.77
2023-06-22T07:45:53.811Z,19.50
2023-06-22T07:48:25.428Z,21.10
2023-06-22T07:50:59.508Z,19.73
2023-06-22T07:53:34.726Z,25.03
2023-06-22T07:56:09.016Z,20.30
2023-06-22T07:58:46.082Z,19.83
2023-06-22T08:01:22.021Z,19.20
2023-06-22T08:03:55.981Z,18.60
2023-06-22T08:06:30.099Z,22.70
2023-06-22T08:09:01.378Z,21.40
2023-06-22T08:11:32.817Z,19.63
2023-06-22T08:14:04.207Z,20.27
2023-06-22T08:16:38.291Z,20.13
2023-06-22T08:19:09.337Z,20.57
2023-06-22T08:21:44.489Z,19.97
2023-06-22T08:24:23.385Z,20.27
2023-06-22T08:26:55.997Z,20.93
2023-06-22T08:29:27.041Z,19.47
2023-06-22T08:32:02.435Z,19.83
2023-06-22T08:34:55.371Z,18.80
2023-06-22T08:37:41.334Z,19.60
2023-06-22T08:40:14.541Z,19.37
2023-06-22T08:42:45.609Z,19.33
2023-06-22T08:45:18.016Z,18.30
2023-06-22T08:47:49.244Z,20.13
2023-06-22T08:50:20.208Z,17.50
2023-06-22T08:52:53.901Z,17.70
2023-06-22T08:55:24.775Z,17.13
2023-06-22T08:57:56.078Z,16.90
2023-06-22T09:00:26.966Z,16.40
2023-06-22T09:03:00.425Z,16.77
2023-06-22T09:05:32.211Z,18.33
2023-06-22T09:08:06.167Z,16.30
2023-06-22T09:10:37.071Z,15.57
2023-06-22T09:13:08.024Z,13.07
2023-06-22T09:15:39.024Z,12.97
2023-06-22T09:18:10.130Z,12.47
2023-06-22T09:20:41.044Z,13.00
2023-06-22T09:23:14.476Z,10.30
2023-06-22T09:25:45.453Z,11.63
2023-06-22T09:28:16.451Z,12.00
2023-06-22T09:30:47.702Z,11.07
2023-06-22T09:33:20.977Z,10.40
2023-06-22T09:35:53.086Z,10.00
2023-06-22T09:38:27.029Z,9.60
2023-06-22T09:40:57.921Z,9.57
2023-06-22T09:43:28.813Z,10.80
2023-06-22T09:45:59.769Z,9.37
2023-06-22T09:48:30.733Z,10.00
2023-06-22T09:51:01.824Z,11.03
2023-06-22T09:53:35.860Z,9.40
2023-06-22T09:56:07.472Z,11.00
2023-06-22T09:58:38.385Z,11.30
2023-06-22T10:01:09.312Z,9.93
2023-06-22T10:03:40.620Z,10.33
2023-06-22T10:06:12.261Z,9.57
2023-06-22T10:08:45.774Z,10.37
2023-06-22T10:11:16.784Z,10.00
2023-06-22T10:13:47.808Z,10.33
2023-06-22T10:16:18.807Z,10.00
2023-06-22T10:18:49.709Z,12.57
2023-06-22T10:21:20.589Z,11.60
2023-06-22T10:23:54.181Z,10.47
2023-06-22T10:26:25.112Z,11.00
2023-06-22T10:29:14.976Z,9.50
2023-06-22T10:31:46.986Z,9.47
2023-06-22T10:34:17.978Z,9.77
2023-06-22T10:36:50.134Z,9.80
2023-06-22T10:39:23.655Z,8.57
2023-06-22T10:41:54.552Z,8.50
2023-06-22T10:44:25.478Z,9.87
2023-06-22T10:46:58.351Z,8.87
2023-06-22T10:49:30.727Z,11.00
2023-06-22T10:52:01.611Z,9.80
2023-06-22T10:54:36.187Z,9.80
2023-06-22T10:57:07.727Z,10.63
2023-06-22T10:59:38.657Z,9.40
2023-06-22T11:02:10.129Z,8.63
2023-06-22T11:04:41.152Z,9.30
2023-06-22T11:07:13.273Z,9.13
2023-06-22T11:09:47.414Z,9.40
2023-06-22T11:12:19.026Z,9.07
2023-06-22T11:14:51.441Z,8.87
2023-06-22T11:17:22.768Z,8.60
2023-06-22T11:19:54.530Z,9.00
2023-06-22T11:22:25.490Z,8.87
2023-06-22T11:24:58.975Z,9.00
2023-06-22T11:27:29.867Z,9.63
2023-06-22T11:30:00.870Z,10.50
2023-06-22T11:32:31.958Z,8.73
2023-06-22T11:35:02.987Z,10.50
2023-06-22T11:37:34.132Z,10.63
2023-06-22T11:40:10.367Z,10.20
2023-06-22T11:42:41.426Z,11.57
2023-06-22T11:45:12.790Z,11.43
2023-06-22T11:47:43.752Z,12.07
2023-06-22T11:50:14.915Z,12.90
2023-06-22T11:52:46.015Z,13.40
2023-06-22T11:55:22.601Z,12.67
2023-06-22T11:58:01.778Z,13.37
2023-06-22T12:00:35.800Z,13.67
2023-06-22T12:03:13.275Z,13.60
2023-06-22T12:05:44.876Z,14.50
2023-06-22T12:08:15.899Z,15.30
2023-06-22T12:10:50.452Z,15.50
2023-06-22T12:13:21.752Z,15.80
2023-06-22T12:15:53.505Z,16.50
2023-06-22T12:18:24.534Z,16.27
2023-06-22T12:20:55.418Z,15.97
2023-06-22T12:23:26.364Z,16.00
2023-06-22T12:26:00.846Z,17.10
2023-06-22T12:28:31.799Z,16.63
2023-06-22T12:31:02.970Z,18.13
2023-06-22T12:33:34.335Z,17.53
2023-06-22T12:36:06.222Z,17.30
2023-06-22T12:38:37.427Z,18.27
2023-06-22T12:41:10.918Z,17.60
2023-06-22T12:43:41.833Z,18.03
2023-06-22T12:46:12.885Z,18.60
2023-06-22T12:48:44.569Z,19.30
2023-06-22T12:51:15.641Z,21.10
2023-06-22T12:53:46.752Z,20.70
2023-06-22T12:56:20.303Z,19.23
2023-06-22T12:58:51.606Z,18.47
2023-06-22T13:01:23.584Z,18.23
2023-06-22T13:03:54.823Z,17.60
2023-06-22T13:06:25.793Z,19.33
2023-06-22T13:09:19.634Z,17.87
2023-06-22T13:11:50.447Z,16.87
2023-06-22T13:14:21.342Z,16.50
2023-06-22T13:16:52.262Z,16.23
2023-06-22T13:19:23.172Z,16.67
2023-06-22T13:21:54.339Z,15.67
2023-06-22T13:24:25.273Z,17.00
2023-06-22T13:26:58.883Z,17.17
2023-06-22T13:29:29.832Z,19.03
2023-06-22T13:32:01.003Z,17.97
2023-06-22T13:34:31.931Z,17.57
2023-06-22T13:37:02.826Z,17.20
2023-06-22T13:39:33.814Z,17.43
2023-06-22T13:42:07.951Z,19.40
2023-06-22T13:44:38.876Z,17.93
2023-06-22T13:47:10.410Z,17.37
2023-06-22T13:49:41.880Z,18.57
2023-06-22T13:52:14.123Z,19.27
2023-06-22T13:54:45.111Z,19.10
2023-06-22T13:57:18.789Z,19.83
2023-06-22T13:59:49.825Z,16.30
2023-06-22T14:02:21.114Z,18.03
2023-06-22T14:04:52.097Z,17.53
2023-06-22T14:07:23.645Z,16.13
2023-06-22T14:09:54.630Z,15.53
2023-06-22T14:12:29.049Z,15.37
2023-06-22T14:14:59.962Z,15.90
2023-06-22T14:17:30.906Z,15.87
2023-06-22T14:20:01.989Z,20.07
2023-06-22T14:22:33.166Z,15.40
2023-06-22T14:25:04.214Z,14.20
2023-06-22T14:27:37.748Z,15.57
2023-06-22T14:30:10.376Z,14.23
2023-06-22T14:32:41.336Z,17.03
2023-06-22T14:35:12.760Z,16.60
2023-06-22T14:37:43.802Z,16.20
2023-06-22T14:40:18.238Z,17.13
2023-06-22T14:42:58.419Z,16.70
2023-06-22T14:45:32.101Z,17.73
2023-06-22T14:48:08.774Z,19.27
2023-06-22T14:50:40.833Z,16.13
2023-06-22T14:53:11.695Z,16.97
2023-06-22T14:55:42.613Z,16.97
2023-06-22T14:58:16.775Z,17.10
2023-06-22T15:00:47.830Z,18.93
2023-06-22T15:03:22.588Z,17.97
2023-06-22T15:05:54.222Z,18.57
2023-06-22T15:08:25.484Z,19.87
2023-06-22T15:10:56.645Z,18.43
2023-06-22T15:13:31.254Z,19.27
2023-06-22T15:16:02.428Z,18.90
2023-06-22T15:18:34.831Z,19.07
2023-06-22T15:21:06.594Z,18.93
2023-06-22T15:23:38.081Z,20.87
2023-06-22T15:26:11.323Z,21.57
2023-06-22T15:28:44.875Z,20.43
2023-06-22T15:31:16.027Z,21.80
2023-06-22T15:33:47.030Z,22.73
2023-06-22T15:36:19.403Z,24.77
2023-06-22T15:38:50.346Z,24.43
2023-06-22T15:41:21.403Z,24.43
2023-06-22T15:43:55.031Z,24.80
2023-06-22T15:46:25.967Z,26.10
2023-06-22T15:48:57.069Z,26.90
2023-06-22T15:51:29.937Z,29.90
2023-06-22T15:54:01.030Z,29.23
2023-06-22T15:56:31.921Z,32.53
2023-06-22T15:59:05.638Z,34.20
2023-06-22T16:01:37.083Z,32.70
2023-06-22T16:04:08.434Z,35.40
2023-06-22T16:06:39.845Z,32.93
2023-06-22T16:09:10.709Z,30.80
2023-06-22T16:11:41.641Z,31.87
2023-06-22T16:14:15.246Z,33.20
2023-06-22T16:16:46.269Z,32.33
2023-06-22T16:19:17.222Z,34.43
2023-06-22T16:21:48.224Z,38.00
2023-06-22T16:24:22.111Z,49.23
2023-06-22T16:26:53.322Z,40.00
2023-06-22T16:29:27.006Z,46.80
2023-06-22T16:31:58.035Z,47.30
2023-06-22T16:34:29.134Z,52.57
2023-06-22T16:37:00.028Z,45.47
2023-06-22T16:39:30.969Z,46.83
2023-06-22T16:42:02.997Z,44.97
2023-06-22T16:44:36.516Z,47.10
2023-06-22T16:47:07.988Z,39.40
2023-06-22T16:49:39.627Z,43.97
2023-06-22T16:52:11.951Z,46.67
2023-06-22T16:54:52.966Z,48.70
2023-06-22T16:57:30.704Z,42.90
2023-06-22T17:00:05.769Z,44.50
2023-06-22T17:02:38.868Z,42.63
2023-06-22T17:05:11.188Z,46.57
2023-06-22T17:07:48.742Z,54.43
2023-06-22T17:10:20.480Z,51.03
2023-06-22T17:12:54.093Z,50.00
2023-06-22T17:15:31.667Z,39.53
2023-06-22T17:18:03.531Z,38.07
2023-06-22T17:20:34.500Z,40.57
2023-06-22T17:23:05.463Z,38.37
2023-06-22T17:25:38.600Z,36.57
2023-06-22T17:28:09.513Z,33.60
2023-06-22T17:30:43.333Z,36.27
2023-06-22T17:33:20.202Z,34.37
2023-06-22T17:35:55.505Z,35.63
2023-06-22T17:38:27.574Z,34.93
2023-06-22T17:41:07.350Z,35.10
2023-06-22T17:43:51.378Z,32.80
2023-06-22T17:46:27.107Z,33.37
2023-06-22T17:48:58.239Z,34.10
2023-06-22T17:51:29.176Z,31.77
2023-06-22T17:54:00.528Z,33.30
2023-06-22T17:56:31.705Z,34.57
2023-06-22T17:59:03.277Z,30.23
2023-06-22T18:01:38.931Z,31.47
2023-06-22T18:04:11.472Z,31.60
2023-06-22T18:06:44.165Z,31.20
2023-06-22T18:09:16.926Z,31.43
2023-06-22T18:11:49.189Z,30.03
2023-06-22T18:14:21.382Z,32.43
2023-06-22T18:16:55.144Z,29.67
2023-06-22T18:19:27.019Z,29.60
2023-06-22T18:21:57.935Z,30.63
2023-06-22T18:24:29.203Z,33.00
2023-06-22T18:27:00.938Z,32.33
2023-06-22T18:29:33.012Z,33.43
2023-06-22T18:32:06.983Z,33.43
2023-06-22T18:34:39.587Z,36.60
2023-06-22T18:37:14.091Z,37.97
2023-06-22T18:39:49.549Z,37.07
2023-06-22T18:42:20.870Z,39.37
2023-06-22T18:44:57.669Z,37.03
2023-06-22T18:50:59.479Z,32.53
2023-06-22T18:53:36.523Z,31.50
2023-06-22T18:56:17.643Z,28.20
2023-06-22T18:59:01.012Z,23.30
2023-06-22T19:01:35.946Z,17.30
2023-06-22T19:04:20.389Z,16.20
2023-06-22T19:07:01.782Z,11.27
2023-06-22T19:09:32.938Z,13.03
2023-06-22T19:12:23.968Z,10.27
2023-06-22T19:15:13.972Z,7.90
2023-06-22T19:17:46.923Z,7.40
2023-06-22T19:20:22.825Z,6.37
2023-06-22T19:22:59.324Z,6.40
2023-06-22T19:25:34.983Z,4.60
2023-06-22T19:28:06.477Z,5.97
2023-06-22T19:30:38.039Z,6.57
2023-06-22T19:33:10.448Z,6.93
2023-06-22T19:35:44.693Z,5.63
2023-06-22T19:38:18.856Z,6.50
2023-06-22T19:40:50.064Z,9.10
2023-06-22T19:43:21.354Z,10.30
2023-06-22T19:46:08.475Z,14.03
2023-06-22T19:48:44.624Z,12.90
2023-06-22T19:51:24.366Z,14.33
2023-06-22T19:53:55.393Z,15.73
2023-06-22T19:56:26.463Z,18.63
2023-06-22T19:58:57.371Z,18.33
2023-06-22T20:01:29.821Z,19.50
2023-06-22T20:04:00.835Z,21.53
2023-06-22T20:07:05.864Z,20.67
2023-06-22T20:10:16.170Z,24.60
2023-06-22T20:12:53.196Z,26.83
2023-06-22T20:15:25.497Z,27.67
2023-06-22T20:18:01.114Z,29.73
2023-06-22T20:20:36.821Z,30.97
2023-06-22T20:23:11.482Z,33.07
2023-06-22T20:25:46.319Z,31.57
2023-06-22T20:28:18.463Z,36.73
2023-06-22T20:31:11.224Z,37.10
2023-06-22T20:33:42.761Z,36.50
2023-06-22T20:36:18.588Z,39.97
2023-06-22T20:38:52.783Z,42.87
2023-06-22T20:41:26.401Z,59.73
2023-06-22T20:44:03.680Z,45.60
2023-06-22T20:46:38.265Z,42.00
2023-06-22T20:49:09.846Z,47.90
2023-06-22T20:51:41.212Z,48.47
2023-06-22T20:54:19.184Z,46.87
2023-06-22T20:56:53.840Z,51.53
2023-06-22T20:59:27.868Z,48.77
2023-06-22T21:02:00.267Z,48.87
2023-06-22T21:04:31.284Z,39.73
2023-06-22T21:07:02.180Z,20.47
2023-06-22T21:09:46.631Z,16.03
2023-06-22T21:12:22.900Z,10.60
2023-06-22T21:14:53.823Z,7.90
2023-06-22T21:17:26.881Z,8.73
2023-06-22T21:19:58.084Z,9.27
2023-06-22T21:22:30.135Z,8.93
2023-06-22T21:25:12.224Z,8.97
2023-06-22T21:27:45.073Z,5.83
2023-06-22T21:30:17.501Z,5.97
2023-06-22T21:32:48.716Z,3.77
2023-06-22T21:35:19.674Z,4.13
2023-06-22T21:37:50.674Z,3.10
2023-06-22T21:40:24.207Z,3.73
2023-06-22T21:42:58.905Z,7.00
2023-06-22T21:45:31.019Z,2.87
2023-06-22T21:48:02.213Z,6.23
2023-06-22T21:50:33.123Z,1.63
2023-06-22T21:53:04.166Z,6.00
2023-06-22T21:55:37.600Z,9.23
2023-06-22T21:58:08.619Z,2.83
2023-06-22T22:00:39.536Z,3.10
2023-06-22T22:03:10.641Z,4.27
2023-06-22T22:05:41.828Z,5.10
2023-06-22T22:08:12.746Z,5.47
2023-06-22T22:10:46.195Z,12.47
2023-06-22T22:13:17.257Z,16.30
2023-06-22T22:15:50.198Z,10.53
2023-06-22T22:18:22.947Z,16.77
2023-06-22T22:20:53.785Z,16.60
2023-06-22T22:23:26.834Z,12.53
2023-06-22T22:26:00.498Z,12.83
2023-06-22T22:28:31.402Z,13.33
2023-06-22T22:31:03.181Z,12.50
2023-06-22T22:33:37.958Z,15.10
2023-06-22T22:36:10.826Z,17.87
2023-06-22T22:38:43.870Z,14.83
2023-06-22T22:41:17.361Z,14.23
2023-06-22T22:43:48.246Z,16.23
2023-06-22T22:46:19.234Z,18.93
2023-06-22T22:48:50.320Z,24.00
2023-06-22T22:51:21.335Z,16.40
2023-06-22T22:53:54.465Z,17.40
2023-06-22T22:56:28.345Z,20.70
2023-06-22T22:58:59.255Z,17.63
2023-06-22T23:01:30.395Z,18.00
2023-06-22T23:04:01.512Z,15.53
2023-06-22T23:06:32.808Z,20.93
2023-06-22T23:09:03.737Z,16.43
2023-06-22T23:11:37.274Z,20.73
2023-06-22T23:14:08.143Z,19.87
2023-06-22T23:16:39.490Z,20.47
2023-06-22T23:19:11.573Z,19.97
2023-06-22T23:21:42.579Z,18.50
2023-06-22T23:24:13.596Z,19.63
2023-06-22T23:26:56.149Z,19.47
2023-06-22T23:29:27.198Z,23.20
2023-06-22T23:31:58.430Z,22.23
2023-06-22T23:34:30.397Z,18.97
2023-06-22T23:37:02.185Z,19.47
2023-06-22T23:39:33.301Z,20.67
2023-06-22T23:42:07.297Z,19.30
2023-06-22T23:44:38.154Z,15.83
2023-06-22T23:47:09.732Z,18.23
2023-06-22T23:49:40.680Z,17.43
2023-06-22T23:52:11.805Z,15.73
2023-06-22T23:54:42.703Z,18.33
2023-06-22T23:57:16.210Z,19.33
2023-06-22T23:59:51.820Z,16.30
